Time;durP1;ratioP1;P1;durP2;ratioP2;P2;SDS_P1;SDS_P2;PMS_P1;PMS_P2;Temp;Humidity;BMP_temperature;BMP_pressure;BME280_temperature;BME280_humidity;BME280_pressure;Samples;Min_cycle;Max_cycle;Signal;HPM_P1;HPM_P2
2022/10/05 00:00:15;;;;;;;9.95;1.95;;;;;;;;;;4978175;28;20050;-64
2022/10/05 00:02:42;;;;;;;9.07;2.10;;;;;;;;;;4977571;28;20575;-64
2022/10/05 00:08:17;;;;;;;11.52;2.20;;;;;;;;;;5020132;27;20434;-64
2022/10/05 00:10:45;;;;;;;15.00;3.97;;;;;;;;;;4995226;28;20046;-68
2022/10/05 00:13:16;;;;;;;10.00;2.25;;;;;;;;;;4999051;28;20046;-63
2022/10/05 00:15:43;;;;;;;7.28;1.80;;;;;;;;;;4999669;28;20049;-64
2022/10/05 00:18:16;;;;;;;10.20;2.50;;;;;;;;;;4998566;28;20128;-65
2022/10/05 00:20:43;;;;;;;19.45;2.90;;;;;;;;;;4997424;28;20042;-63
2022/10/05 00:23:30;;;;;;;14.90;4.07;;;;;;;;;;4999733;28;20038;-65
2022/10/05 00:26:26;;;;;;;9.23;2.50;;;;;;;;;;5006079;28;20456;-66
2022/10/05 00:28:53;;;;;;;17.52;7.03;;;;;;;;;;4997082;28;20042;-64
2022/10/05 00:31:24;;;;;;;8.70;2.47;;;;;;;;;;4999096;28;20048;-66
2022/10/05 00:33:51;;;;;;;7.82;2.65;;;;;;;;;;5000284;28;20046;-65
2022/10/05 00:36:18;;;;;;;16.17;2.70;;;;;;;;;;5026543;28;20175;-64
2022/10/05 00:38:45;;;;;;;5.50;2.20;;;;;;;;;;4997624;28;20550;-65
2022/10/05 00:41:15;;;;;;;9.32;2.42;;;;;;;;;;4999242;28;20797;-65
2022/10/05 00:43:54;;;;;;;6.22;2.22;;;;;;;;;;4998580;28;20038;-64
2022/10/05 00:46:23;;;;;;;8.90;2.85;;;;;;;;;;4997872;28;20081;-66
2022/10/05 00:55:43;;;;;;;9.40;2.65;;;;;;;;;;4994908;28;20419;-66
2022/10/05 00:58:28;;;;;;;7.07;2.72;;;;;;;;;;4976805;28;20043;-66
2022/10/05 01:00:55;;;;;;;11.88;3.05;;;;;;;;;;4975435;28;20125;-66
2022/10/05 01:03:21;;;;;;;9.27;3.15;;;;;;;;;;4976115;28;20042;-66
2022/10/05 01:05:48;;;;;;;15.20;3.95;;;;;;;;;;4977477;28;20035;-64
2022/10/05 01:08:33;;;;;;;12.15;3.75;;;;;;;;;;4976301;28;20049;-64
2022/10/05 01:11:10;;;;;;;9.23;3.40;;;;;;;;;;4973447;28;20388;-64
2022/10/05 01:13:39;;;;;;;9.25;3.78;;;;;;;;;;4974441;28;20056;-63
2022/10/05 01:16:09;;;;;;;16.33;5.75;;;;;;;;;;4973892;28;20110;-64
2022/10/05 01:18:45;;;;;;;14.77;3.58;;;;;;;;;;4973883;28;20090;-65
2022/10/05 01:21:20;;;;;;;10.25;3.83;;;;;;;;;;4974802;28;20052;-65
2022/10/05 01:23:55;;;;;;;11.88;3.17;;;;;;;;;;4982991;28;20133;-64
2022/10/05 01:26:42;;;;;;;12.80;2.88;;;;;;;;;;4973472;28;20045;-65
2022/10/05 01:29:27;;;;;;;18.27;3.20;;;;;;;;;;4974057;28;20039;-65
2022/10/05 01:32:08;;;;;;;10.43;2.83;;;;;;;;;;4978508;28;20046;-65
2022/10/05 01:35:03;;;;;;;14.18;2.78;;;;;;;;;;4995399;28;20057;-64
2022/10/05 01:37:30;;;;;;;15.52;3.03;;;;;;;;;;5004404;28;20076;-64
2022/10/05 01:40:08;;;;;;;12.68;2.80;;;;;;;;;;4972966;28;20484;-64
2022/10/05 01:42:46;;;;;;;8.95;2.47;;;;;;;;;;4973913;28;20062;-63
2022/10/05 01:45:28;;;;;;;18.58;5.38;;;;;;;;;;4974932;28;20042;-62
2022/10/05 01:48:03;;;;;;;6.88;2.60;;;;;;;;;;4974678;28;20039;-64
2022/10/05 01:50:39;;;;;;;6.28;2.25;;;;;;;;;;4974494;28;20333;-64
2022/10/05 01:53:12;;;;;;;13.38;2.50;;;;;;;;;;4976614;28;20046;-64
2022/10/05 01:55:43;;;;;;;12.57;2.42;;;;;;;;;;4975521;28;20053;-64
2022/10/05 01:58:21;;;;;;;8.98;2.30;;;;;;;;;;4976870;28;20049;-64
2022/10/05 02:00:47;;;;;;;18.40;3.13;;;;;;;;;;4974353;28;20508;-63
2022/10/05 02:03:18;;;;;;;10.25;2.45;;;;;;;;;;4975304;28;20395;-63
2022/10/05 02:05:51;;;;;;;6.47;2.50;;;;;;;;;;4963741;28;20050;-64
2022/10/05 02:08:41;;;;;;;11.02;2.47;;;;;;;;;;4961270;28;20055;-64
2022/10/05 02:11:08;;;;;;;10.43;2.80;;;;;;;;;;4969259;28;20536;-63
2022/10/05 02:13:49;;;;;;;14.20;3.00;;;;;;;;;;4962176;28;20106;-64
2022/10/05 02:16:24;;;;;;;7.57;2.65;;;;;;;;;;4964556;28;20209;-67
2022/10/05 02:18:56;;;;;;;9.63;2.63;;;;;;;;;;4960363;28;20217;-66
2022/10/05 02:21:23;;;;;;;5.47;2.03;;;;;;;;;;4960241;28;20035;-67
2022/10/05 02:23:52;;;;;;;8.30;2.30;;;;;;;;;;4962379;28;20046;-66
2022/10/05 02:26:19;;;;;;;8.57;2.50;;;;;;;;;;4962156;28;20456;-65
2022/10/05 02:28:52;;;;;;;11.95;2.90;;;;;;;;;;4963600;28;20045;-64
2022/10/05 02:31:22;;;;;;;8.88;1.98;;;;;;;;;;4964345;28;20451;-64
2022/10/05 02:33:48;;;;;;;15.13;4.22;;;;;;;;;;4962171;28;20777;-62
2022/10/05 02:36:18;;;;;;;8.77;2.85;;;;;;;;;;4962877;28;20047;-66
2022/10/05 02:39:20;;;;;;;7.57;2.47;;;;;;;;;;4960607;28;20070;-66
2022/10/05 02:41:49;;;;;;;11.70;2.28;;;;;;;;;;4976212;28;20252;-66
2022/10/05 02:44:34;;;;;;;7.43;2.38;;;;;;;;;;4964548;28;20101;-66
2022/10/05 02:47:04;;;;;;;8.25;2.08;;;;;;;;;;4962379;28;20047;-66
2022/10/05 02:49:33;;;;;;;6.15;2.33;;;;;;;;;;4960839;28;20206;-65
2022/10/05 02:52:00;;;;;;;11.70;2.40;;;;;;;;;;4962852;28;20042;-66
2022/10/05 02:54:39;;;;;;;6.18;2.05;;;;;;;;;;4959522;28;20047;-66
2022/10/05 02:57:12;;;;;;;8.15;2.42;;;;;;;;;;4962321;28;20046;-65
2022/10/05 02:59:40;;;;;;;11.05;2.20;;;;;;;;;;4961887;28;20043;-66
2022/10/05 03:02:23;;;;;;;9.73;2.38;;;;;;;;;;4962942;28;20046;-67
2022/10/05 03:04:59;;;;;;;7.07;1.63;;;;;;;;;;4962318;28;20062;-64
2022/10/05 03:07:32;;;;;;;6.35;2.10;;;;;;;;;;4963525;28;20043;-67
2022/10/05 03:09:58;;;;;;;;;;;;;;;;;;4961476;28;20523;-66
2022/10/05 03:12:28;;;;;;;6.43;2.00;;;;;;;;;;4962249;28;20558;-65
2022/10/05 03:15:03;;;;;;;6.43;2.10;;;;;;;;;;4964959;28;20049;-64
2022/10/05 03:17:34;;;;;;;5.93;1.98;;;;;;;;;;4961355;28;20126;-64
2022/10/05 03:20:01;;;;;;;6.40;2.00;;;;;;;;;;4963382;28;20045;-67
2022/10/05 03:22:33;;;;;;;14.68;1.90;;;;;;;;;;4961461;28;20047;-65
2022/10/05 03:25:03;;;;;;;13.43;2.28;;;;;;;;;;4961401;28;20089;-66
2022/10/05 03:27:39;;;;;;;7.72;1.95;;;;;;;;;;4961592;28;20031;-65
2022/10/05 03:30:25;;;;;;;13.48;2.25;;;;;;;;;;4961249;28;20053;-66
2022/10/05 03:32:52;;;;;;;5.63;2.08;;;;;;;;;;4962180;28;20043;-65
2022/10/05 03:35:29;;;;;;;7.82;1.98;;;;;;;;;;4961549;28;20101;-64
2022/10/05 03:38:02;;;;;;;9.98;1.83;;;;;;;;;;4961850;28;20144;-64
2022/10/05 03:40:37;;;;;;;9.90;2.13;;;;;;;;;;4959139;28;20125;-66
2022/10/05 03:43:13;;;;;;;6.93;1.77;;;;;;;;;;4961967;28;20031;-65
2022/10/05 03:45:42;;;;;;;11.25;2.00;;;;;;;;;;4960294;28;20161;-65
2022/10/05 03:48:11;;;;;;;10.43;1.98;;;;;;;;;;4961103;28;20051;-65
2022/10/05 03:50:56;;;;;;;5.93;1.92;;;;;;;;;;4960168;28;20038;-64
2022/10/05 03:53:25;;;;;;;8.57;1.90;;;;;;;;;;4960042;28;20050;-65
2022/10/05 03:55:58;;;;;;;6.45;2.28;;;;;;;;;;4960999;28;20162;-65
2022/10/05 03:58:31;;;;;;;7.15;2.17;;;;;;;;;;4958669;28;20110;-63
2022/10/05 04:01:01;;;;;;;8.50;2.15;;;;;;;;;;4958753;28;20097;-64
2022/10/05 04:03:27;;;;;;;12.98;3.13;;;;;;;;;;4959094;28;20618;-64
2022/10/05 04:06:13;;;;;;;9.63;2.22;;;;;;;;;;4959920;28;20034;-65
2022/10/05 04:08:46;;;;;;;7.85;2.10;;;;;;;;;;4960245;28;20143;-65
2022/10/05 04:11:20;;;;;;;8.18;1.90;;;;;;;;;;4964284;28;20100;-66
2022/10/05 04:13:56;;;;;;;6.28;2.00;;;;;;;;;;4960638;28;20100;-66
2022/10/05 04:16:27;;;;;;;5.53;1.70;;;;;;;;;;4960098;28;20089;-66
2022/10/05 04:18:57;;;;;;;10.10;1.90;;;;;;;;;;4960003;28;20039;-65
2022/10/05 04:21:27;;;;;;;5.43;2.00;;;;;;;;;;4959799;28;20038;-66
2022/10/05 04:23:53;;;;;;;8.38;1.75;;;;;;;;;;4961079;28;20035;-65
2022/10/05 04:26:24;;;;;;;7.22;1.95;;;;;;;;;;4960230;28;20146;-67
2022/10/05 04:28:58;;;;;;;7.88;2.08;;;;;;;;;;4959961;28;20129;-66
2022/10/05 04:31:27;;;;;;;4.35;1.70;;;;;;;;;;4960330;28;20627;-66
2022/10/05 04:34:00;;;;;;;7.35;1.90;;;;;;;;;;4960694;28;20137;-65
2022/10/05 04:36:32;;;;;;;8.32;2.13;;;;;;;;;;4960666;28;20108;-65
2022/10/05 04:38:58;;;;;;;11.82;1.98;;;;;;;;;;4960318;28;20035;-65
2022/10/05 04:41:54;;;;;;;10.70;1.95;;;;;;;;;;4961212;28;20049;-64
2022/10/05 04:44:43;;;;;;;5.80;2.10;;;;;;;;;;4970885;28;20263;-67
2022/10/05 04:47:28;;;;;;;10.10;2.05;;;;;;;;;;4957323;28;20178;-66
2022/10/05 04:50:01;;;;;;;9.00;2.53;;;;;;;;;;4959189;28;20080;-65
2022/10/05 04:52:38;;;;;;;7.57;1.90;;;;;;;;;;4960985;28;20134;-68
2022/10/05 04:55:12;;;;;;;9.73;2.42;;;;;;;;;;4960071;28;20059;-64
2022/10/05 04:57:47;;;;;;;6.22;1.95;;;;;;;;;;4959476;28;20054;-66
2022/10/05 05:00:24;;;;;;;5.32;2.08;;;;;;;;;;4958979;28;20050;-65
2022/10/05 05:03:00;;;;;;;8.45;1.98;;;;;;;;;;4961507;28;20126;-65
2022/10/05 05:05:49;;;;;;;8.60;2.25;;;;;;;;;;4959922;28;20034;-65
2022/10/05 05:08:19;;;;;;;6.57;2.38;;;;;;;;;;4965805;28;20153;-64
2022/10/05 05:11:04;;;;;;;10.60;2.03;;;;;;;;;;4959046;28;20042;-64
2022/10/05 05:13:33;;;;;;;14.77;2.65;;;;;;;;;;4961474;28;23776;-65
2022/10/05 05:16:15;;;;;;;9.98;2.72;;;;;;;;;;4960797;28;20039;-65
2022/10/05 05:18:50;;;;;;;12.88;2.97;;;;;;;;;;4959378;28;20049;-65
2022/10/05 05:21:19;;;;;;;14.50;3.15;;;;;;;;;;4973503;28;20047;-66
2022/10/05 05:23:54;;;;;;;12.50;3.10;;;;;;;;;;4962662;28;20057;-66
2022/10/05 05:26:24;;;;;;;7.30;3.05;;;;;;;;;;4959825;28;20722;-65
2022/10/05 05:28:54;;;;;;;7.07;3.47;;;;;;;;;;4959022;28;20800;-65
2022/10/05 05:31:33;;;;;;;9.93;3.80;;;;;;;;;;4959896;28;20045;-65
2022/10/05 05:34:06;;;;;;;10.05;4.63;;;;;;;;;;4960160;28;20046;-64
2022/10/05 05:36:49;;;;;;;13.38;4.32;;;;;;;;;;4961912;28;20047;-65
2022/10/05 05:39:33;;;;;;;10.07;4.47;;;;;;;;;;4959497;28;20043;-66
2022/10/05 05:42:00;;;;;;;11.60;4.80;;;;;;;;;;4960261;28;20512;-65
2022/10/05 05:44:28;;;;;;;12.40;4.63;;;;;;;;;;4961187;28;20038;-64
2022/10/05 05:46:58;;;;;;;10.48;5.07;;;;;;;;;;4960730;28;20538;-66
2022/10/05 05:49:30;;;;;;;12.52;5.57;;;;;;;;;;4959690;28;20049;-65
2022/10/05 05:52:00;;;;;;;9.55;4.57;;;;;;;;;;4974409;28;20708;-65
2022/10/05 05:54:41;;;;;;;20.35;4.88;;;;;;;;;;4960832;28;20520;-65
2022/10/05 05:57:10;;;;;;;10.25;4.68;;;;;;;;;;4960620;28;20484;-64
2022/10/05 05:59:55;;;;;;;11.70;4.43;;;;;;;;;;4958853;28;20049;-65
2022/10/05 06:02:25;;;;;;;16.77;5.47;;;;;;;;;;4960124;28;20042;-64
2022/10/05 06:05:01;;;;;;;9.57;4.45;;;;;;;;;;4960837;28;20112;-65
2022/10/05 06:07:30;;;;;;;10.65;5.15;;;;;;;;;;4960304;28;20165;-64
2022/10/05 06:10:11;;;;;;;10.48;4.50;;;;;;;;;;4976548;28;20037;-65
2022/10/05 06:12:41;;;;;;;11.20;4.50;;;;;;;;;;4974914;28;20062;-64
2022/10/05 06:15:26;;;;;;;9.32;4.82;;;;;;;;;;4960926;28;20058;-64
2022/10/05 06:17:54;;;;;;;9.15;4.63;;;;;;;;;;4964716;28;20182;-65
2022/10/05 06:20:39;;;;;;;12.35;5.28;;;;;;;;;;4962126;28;20043;-65
2022/10/05 06:23:10;;;;;;;17.92;5.82;;;;;;;;;;4964155;28;20062;-65
2022/10/05 06:25:47;;;;;;;17.67;5.70;;;;;;;;;;4961947;28;20042;-66
2022/10/05 06:28:18;;;;;;;16.95;5.55;;;;;;;;;;4963061;28;20108;-64
2022/10/05 06:30:47;;;;;;;15.05;6.05;;;;;;;;;;4963324;28;20399;-65
2022/10/05 06:33:32;;;;;;;15.82;6.05;;;;;;;;;;4963150;28;21392;-65
2022/10/05 06:36:02;;;;;;;14.50;5.10;;;;;;;;;;4962086;28;20186;-64
2022/10/05 06:38:40;;;;;;;19.20;5.75;;;;;;;;;;4961648;28;20075;-65
2022/10/05 06:41:17;;;;;;;20.80;5.88;;;;;;;;;;4963015;28;20085;-65
2022/10/05 06:43:58;;;;;;;13.52;5.28;;;;;;;;;;4961399;28;20579;-67
2022/10/05 06:46:34;;;;;;;13.25;5.45;;;;;;;;;;4961987;28;20094;-66
2022/10/05 06:49:06;;;;;;;11.75;5.03;;;;;;;;;;4962786;28;20492;-66
2022/10/05 06:51:38;;;;;;;17.02;5.72;;;;;;;;;;4962162;28;20125;-65
2022/10/05 06:54:08;;;;;;;15.13;6.25;;;;;;;;;;4962027;28;20868;-66
2022/10/05 06:56:57;;;;;;;14.65;5.28;;;;;;;;;;4973734;28;20070;-65
2022/10/05 06:59:53;;;;;;;18.95;6.07;;;;;;;;;;4960410;28;20192;-64
2022/10/05 07:02:38;;;;;;;16.42;5.50;;;;;;;;;;4962051;28;20046;-64
2022/10/05 07:05:23;;;;;;;14.05;6.22;;;;;;;;;;4975546;28;20035;-65
2022/10/05 07:07:53;;;;;;;14.43;6.78;;;;;;;;;;4965497;28;20065;-64
2022/10/05 07:10:20;;;;;;;15.48;7.20;;;;;;;;;;4963493;28;20038;-65
2022/10/05 07:12:58;;;;;;;21.35;7.28;;;;;;;;;;4966566;28;20046;-65
2022/10/05 07:15:44;;;;;;;16.50;6.20;;;;;;;;;;4962989;28;20069;-65
2022/10/05 07:18:13;;;;;;;14.88;5.60;;;;;;;;;;4962786;28;20045;-64
2022/10/05 07:20:49;;;;;;;17.63;5.90;;;;;;;;;;4962192;28;20043;-64
2022/10/05 07:23:20;;;;;;;21.88;6.28;;;;;;;;;;4963176;28;20046;-65
2022/10/05 07:25:53;;;;;;;12.27;5.63;;;;;;;;;;4962485;28;20077;-66
2022/10/05 07:28:27;;;;;;;13.27;6.23;;;;;;;;;;4962903;28;20790;-63
2022/10/05 07:31:05;;;;;;;15.50;6.40;;;;;;;;;;4964743;28;20288;-63
2022/10/05 07:33:34;;;;;;;12.40;6.28;;;;;;;;;;4964800;28;20074;-63
2022/10/05 07:39:13;;;;;;;18.52;6.60;;;;;;;;;;4963075;28;20085;-64
2022/10/05 07:42:03;;;;;;;16.98;6.70;;;;;;;;;;4964917;28;20484;-63
2022/10/05 07:44:37;;;;;;;13.68;7.32;;;;;;;;;;4979654;28;20072;-64
2022/10/05 07:47:07;;;;;;;16.02;6.97;;;;;;;;;;4965008;28;20051;-63
2022/10/05 07:49:36;;;;;;;19.48;6.90;;;;;;;;;;4963702;28;20043;-64
2022/10/05 07:52:06;;;;;;;17.30;7.18;;;;;;;;;;4959925;28;20049;-63
2022/10/05 07:54:51;;;;;;;17.25;7.47;;;;;;;;;;4958267;28;20057;-62
2022/10/05 07:57:28;;;;;;;16.90;7.70;;;;;;;;;;4959222;28;20054;-65
2022/10/05 08:00:13;;;;;;;13.27;7.25;;;;;;;;;;4983345;28;20415;-63
2022/10/05 08:02:47;;;;;;;13.38;7.43;;;;;;;;;;4958665;28;20885;-64
2022/10/05 08:05:20;;;;;;;19.13;8.07;;;;;;;;;;4958837;28;20047;-64
2022/10/05 08:07:49;;;;;;;19.17;7.78;;;;;;;;;;4963193;28;20121;-63
2022/10/05 08:10:15;;;;;;;16.67;7.65;;;;;;;;;;4964946;28;20057;-65
2022/10/05 08:13:05;;;;;;;23.23;7.50;;;;;;;;;;4963142;28;20042;-61
2022/10/05 08:15:38;;;;;;;24.83;8.18;;;;;;;;;;4962259;28;20174;-64
2022/10/05 08:18:11;;;;;;;21.55;7.80;;;;;;;;;;4963681;28;20774;-61
2022/10/05 08:20:45;;;;;;;20.83;8.47;;;;;;;;;;4962258;28;20522;-65
2022/10/05 08:23:30;;;;;;;17.65;7.78;;;;;;;;;;4961287;28;20039;-64
2022/10/05 08:26:05;;;;;;;19.63;7.75;;;;;;;;;;4960666;28;20035;-64
2022/10/05 08:28:35;;;;;;;22.77;8.77;;;;;;;;;;4960701;28;20052;-65
2022/10/05 08:31:17;;;;;;;19.70;9.88;;;;;;;;;;4963857;28;20058;-65
2022/10/05 08:34:04;;;;;;;20.48;9.00;;;;;;;;;;4960283;28;20165;-64
2022/10/05 08:36:52;;;;;;;24.45;10.00;;;;;;;;;;4960109;28;20068;-64
2022/10/05 08:39:20;;;;;;;20.23;9.93;;;;;;;;;;4961793;28;20130;-65
2022/10/05 08:42:05;;;;;;;20.33;9.23;;;;;;;;;;4961337;28;20070;-64
2022/10/05 08:44:51;;;;;;;22.10;10.05;;;;;;;;;;4960909;28;20050;-65
2022/10/05 08:47:30;;;;;;;25.33;9.45;;;;;;;;;;4963297;28;20050;-65
2022/10/05 08:50:16;;;;;;;21.63;9.52;;;;;;;;;;4957915;28;20527;-66
2022/10/05 08:52:42;;;;;;;26.52;10.77;;;;;;;;;;4960685;28;20113;-66
2022/10/05 08:55:19;;;;;;;17.17;9.73;;;;;;;;;;4961464;28;20077;-66
2022/10/05 08:58:07;;;;;;;20.83;10.13;;;;;;;;;;4961285;28;20042;-64
2022/10/05 09:00:36;;;;;;;18.73;10.63;;;;;;;;;;4960633;28;20055;-65
2022/10/05 09:03:22;;;;;;;18.00;9.98;;;;;;;;;;5546784;23;22161;31
2022/10/05 09:06:08;;;;;;;27.52;10.57;;;;;;;;;;5000044;22;20053;-61
2022/10/05 09:08:39;;;;;;;23.08;10.75;;;;;;;;;;5008003;28;20054;-66
2022/10/05 09:11:25;;;;;;;22.42;10.68;;;;;;;;;;5008723;28;20554;-65
2022/10/05 09:13:52;;;;;;;22.95;10.32;;;;;;;;;;4988144;28;20509;-64
2022/10/05 09:16:25;;;;;;;20.08;10.73;;;;;;;;;;5012255;28;20069;-65
2022/10/05 09:19:01;;;;;;;21.33;10.98;;;;;;;;;;5013209;28;20783;-65
2022/10/05 09:21:43;;;;;;;21.00;11.07;;;;;;;;;;5013855;28;20183;-65
2022/10/05 09:24:18;;;;;;;27.17;11.40;;;;;;;;;;5013273;28;20038;-64
2022/10/05 09:27:00;;;;;;;25.90;11.35;;;;;;;;;;5013776;28;20056;-64
2022/10/05 09:29:27;;;;;;;23.48;11.30;;;;;;;;;;5013123;28;20719;-65
2022/10/05 09:32:12;;;;;;;17.60;10.43;;;;;;;;;;5013347;28;20072;-66
2022/10/05 09:34:39;;;;;;;20.27;11.02;;;;;;;;;;5011340;28;20139;-65
2022/10/05 09:37:25;;;;;;;25.70;10.82;;;;;;;;;;5013620;28;20505;-64
2022/10/05 09:40:10;;;;;;;27.27;11.15;;;;;;;;;;5013700;28;20045;-63
2022/10/05 09:42:39;;;;;;;23.67;11.73;;;;;;;;;;5012794;28;20125;-65
2022/10/05 09:45:25;;;;;;;24.45;10.88;;;;;;;;;;5014287;28;21675;-65
2022/10/05 09:48:11;;;;;;;19.60;10.70;;;;;;;;;;5010112;28;20045;-65
2022/10/05 09:50:39;;;;;;;22.20;11.77;;;;;;;;;;5010553;28;20155;-64
2022/10/05 09:53:09;;;;;;;24.27;10.52;;;;;;;;;;5011663;28;20442;-62
2022/10/05 09:55:45;;;;;;;18.88;10.90;;;;;;;;;;5011407;28;20045;-62
2022/10/05 09:58:34;;;;;;;18.52;11.32;;;;;;;;;;4993495;28;20063;-63
2022/10/05 10:01:06;;;;;;;21.52;11.40;;;;;;;;;;5010517;28;20041;-66
2022/10/05 10:03:51;;;;;;;20.60;11.90;;;;;;;;;;5009586;28;20033;-64
2022/10/05 10:06:17;;;;;;;23.17;11.65;;;;;;;;;;5013020;28;20088;-64
2022/10/05 10:08:44;;;;;;;27.92;13.15;;;;;;;;;;5012941;28;20082;-66
2022/10/05 10:11:23;;;;;;;26.73;12.52;;;;;;;;;;5013568;28;20044;-64
2022/10/05 10:14:01;;;;;;;25.70;13.00;;;;;;;;;;5014862;28;20050;-64
2022/10/05 10:16:27;;;;;;;28.05;12.23;;;;;;;;;;5009356;28;20054;-64
2022/10/05 10:19:23;;;;;;;25.70;13.02;;;;;;;;;;5012119;28;20037;-65
2022/10/05 10:22:08;;;;;;;29.20;13.48;;;;;;;;;;4914949;28;20044;-64
2022/10/05 10:24:53;;;;;;;25.05;13.02;;;;;;;;;;5010393;28;20072;-63
2022/10/05 10:27:38;;;;;;;25.83;13.85;;;;;;;;;;4992325;28;20117;-65
2022/10/05 10:30:23;;;;;;;27.80;13.80;;;;;;;;;;4993093;28;20038;-62
2022/10/05 10:32:50;;;;;;;24.30;12.68;;;;;;;;;;4991331;28;20103;-64
2022/10/05 10:35:25;;;;;;;28.20;11.98;;;;;;;;;;4993753;28;20089;-63
2022/10/05 10:37:57;;;;;;;24.77;13.52;;;;;;;;;;4994219;28;20070;-61
2022/10/05 10:40:27;;;;;;;24.48;12.05;;;;;;;;;;4992446;28;20073;-63
2022/10/05 10:42:53;;;;;;;28.27;14.02;;;;;;;;;;4993856;28;20133;-62
2022/10/05 10:45:23;;;;;;;25.60;13.02;;;;;;;;;;4992244;28;20041;-64
2022/10/05 10:47:58;;;;;;;30.90;14.05;;;;;;;;;;4992229;28;20121;-60
2022/10/05 10:50:43;;;;;;;27.23;13.52;;;;;;;;;;4991869;28;20666;-65
2022/10/05 10:53:18;;;;;;;33.25;15.02;;;;;;;;;;4993056;28;20049;-64
2022/10/05 10:55:45;;;;;;;34.05;14.57;;;;;;;;;;4992112;28;20050;-63
2022/10/05 10:58:12;;;;;;;25.00;13.68;;;;;;;;;;4993146;28;20033;-62
2022/10/05 11:00:57;;;;;;;25.83;14.15;;;;;;;;;;4992861;28;20038;-63
2022/10/05 11:03:26;;;;;;;27.17;14.48;;;;;;;;;;4993535;28;20142;-61
2022/10/05 11:06:06;;;;;;;24.55;14.38;;;;;;;;;;5009828;28;20073;-62
2022/10/05 11:08:33;;;;;;;24.33;14.60;;;;;;;;;;5011228;28;20049;-61
2022/10/05 11:11:18;;;;;;;31.50;14.77;;;;;;;;;;5012420;28;20037;-62
2022/10/05 11:14:01;;;;;;;33.88;14.90;;;;;;;;;;5011954;28;20455;-63
2022/10/05 11:16:42;;;;;;;30.83;14.77;;;;;;;;;;5010970;28;20045;-61
2022/10/05 11:19:24;;;;;;;30.95;15.60;;;;;;;;;;5012257;28;20041;-63
2022/10/05 11:21:59;;;;;;;31.33;16.02;;;;;;;;;;5011285;28;20056;-64
2022/10/05 11:24:44;;;;;;;27.20;14.48;;;;;;;;;;5010409;28;20064;-64
2022/10/05 11:27:11;;;;;;;24.45;14.70;;;;;;;;;;5011151;28;20049;-62
2022/10/05 11:29:37;;;;;;;30.83;16.00;;;;;;;;;;5010243;28;20045;-62
2022/10/05 11:32:04;;;;;;;32.28;15.85;;;;;;;;;;5011156;28;20025;-63
2022/10/05 11:34:38;;;;;;;43.47;15.55;;;;;;;;;;5011112;28;20046;-62
2022/10/05 11:37:04;;;;;;;28.52;15.88;;;;;;;;;;5012064;28;20492;-62
2022/10/05 11:39:32;;;;;;;35.70;16.70;;;;;;;;;;5010995;28;20384;-63
2022/10/05 11:41:58;;;;;;;32.17;17.10;;;;;;;;;;5010929;28;20947;-64
2022/10/05 11:44:25;;;;;;;32.50;17.48;;;;;;;;;;5011443;28;20042;-61
2022/10/05 11:46:59;;;;;;;42.65;17.80;;;;;;;;;;5013288;28;20044;-63
2022/10/05 11:49:25;;;;;;;31.63;16.83;;;;;;;;;;4999903;28;20046;-64
2022/10/05 11:51:52;;;;;;;31.58;16.73;;;;;;;;;;5012134;28;20124;-63
2022/10/05 11:54:25;;;;;;;36.88;17.92;;;;;;;;;;5012076;28;20055;-64
2022/10/05 11:57:17;;;;;;;33.88;17.20;;;;;;;;;;5011725;28;20084;-64
2022/10/05 11:59:58;;;;;;;37.67;18.52;;;;;;;;;;5012542;28;20061;-63
2022/10/05 12:02:26;;;;;;;30.00;17.85;;;;;;;;;;5012159;28;20469;-65
2022/10/05 12:05:03;;;;;;;32.25;17.65;;;;;;;;;;5014649;28;20248;-64
2022/10/05 12:07:51;;;;;;;34.45;18.50;;;;;;;;;;5011875;28;20034;-65
2022/10/05 12:10:31;;;;;;;35.25;19.13;;;;;;;;;;5009533;28;20049;-61
2022/10/05 12:13:01;;;;;;;32.65;18.83;;;;;;;;;;5009193;28;20037;-65
2022/10/05 12:15:43;;;;;;;40.95;19.42;;;;;;;;;;5011159;28;20112;-62
2022/10/05 12:18:15;;;;;;;34.58;18.55;;;;;;;;;;5010030;28;20037;-61
2022/10/05 12:20:54;;;;;;;40.80;19.42;;;;;;;;;;5008172;28;20041;-61
2022/10/05 12:23:24;;;;;;;34.28;19.55;;;;;;;;;;5008885;28;20176;-63
2022/10/05 12:25:55;;;;;;;31.90;18.42;;;;;;;;;;5010088;28;20067;-61
2022/10/05 12:28:26;;;;;;;39.15;19.80;;;;;;;;;;5008142;28;20136;-63
2022/10/05 12:30:53;;;;;;;47.08;22.05;;;;;;;;;;5009299;28;20044;-65
2022/10/05 12:33:40;;;;;;;41.70;20.98;;;;;;;;;;5010345;28;20052;-64
2022/10/05 12:36:06;;;;;;;35.90;19.38;;;;;;;;;;4997152;28;20058;-63
2022/10/05 12:38:51;;;;;;;41.00;19.30;;;;;;;;;;5009578;28;20037;-63
2022/10/05 12:41:25;;;;;;;32.67;18.63;;;;;;;;;;5005539;28;20432;-62
2022/10/05 12:44:03;;;;;;;37.53;19.52;;;;;;;;;;5005083;28;20049;-63
2022/10/05 12:46:51;;;;;;;33.55;19.02;;;;;;;;;;4988797;28;20107;-64
2022/10/05 12:49:36;;;;;;;34.05;18.33;;;;;;;;;;5008422;28;20057;-63
2022/10/05 12:52:10;;;;;;;37.70;19.58;;;;;;;;;;5000107;28;20052;-63
2022/10/05 12:54:49;;;;;;;35.65;18.98;;;;;;;;;;5005634;28;20045;-63
2022/10/05 12:57:34;;;;;;;39.78;19.50;;;;;;;;;;5005408;28;20049;-63
2022/10/05 13:00:04;;;;;;;31.90;17.63;;;;;;;;;;5001990;28;20777;-63
2022/10/05 13:02:50;;;;;;;32.75;15.32;;;;;;;;;;5001184;28;20034;-63
2022/10/05 13:05:20;;;;;;;37.55;16.58;;;;;;;;;;5002613;28;20045;-64
2022/10/05 13:07:57;;;;;;;30.67;17.05;;;;;;;;;;5002549;28;20071;-65
2022/10/05 13:10:31;;;;;;;31.98;16.10;;;;;;;;;;5000708;28;20042;-64
2022/10/05 13:13:00;;;;;;;34.97;15.93;;;;;;;;;;5002569;28;20080;-61
2022/10/05 13:15:31;;;;;;;35.50;16.35;;;;;;;;;;5002178;28;20108;-63
2022/10/05 13:18:06;;;;;;;32.22;16.20;;;;;;;;;;5002978;28;20037;-62
2022/10/05 13:20:45;;;;;;;36.22;17.08;;;;;;;;;;5001881;28;20137;-62
2022/10/05 13:23:21;;;;;;;44.75;18.10;;;;;;;;;;5002587;28;20053;-62
2022/10/05 13:26:01;;;;;;;36.90;16.42;;;;;;;;;;5001849;28;20096;-61
2022/10/05 13:28:36;;;;;;;33.53;16.42;;;;;;;;;;4994896;28;20112;-59
2022/10/05 13:31:08;;;;;;;39.95;16.83;;;;;;;;;;5002518;28;20121;-61
2022/10/05 13:33:53;;;;;;;51.38;17.42;;;;;;;;;;5001921;28;20063;-62
2022/10/05 13:36:35;;;;;;;55.35;17.25;;;;;;;;;;5002132;28;20152;-62
2022/10/05 13:39:19;;;;;;;40.85;17.35;;;;;;;;;;5002616;28;20290;-64
2022/10/05 13:42:05;;;;;;;45.42;16.85;;;;;;;;;;5002112;28;20196;-64
2022/10/05 13:44:35;;;;;;;38.90;17.20;;;;;;;;;;5002124;28;20094;-63
2022/10/05 13:47:07;;;;;;;34.30;17.35;;;;;;;;;;5003243;28;20080;-64
2022/10/05 13:49:49;;;;;;;37.22;16.17;;;;;;;;;;5002136;28;20045;-63
2022/10/05 13:52:31;;;;;;;39.72;16.98;;;;;;;;;;5001377;28;20083;-65
2022/10/05 13:55:14;;;;;;;35.88;16.98;;;;;;;;;;5001963;28;20058;-65
2022/10/05 13:58:02;;;;;;;40.17;17.55;;;;;;;;;;5002085;28;20092;-64
2022/10/05 14:00:29;;;;;;;43.70;17.55;;;;;;;;;;4999182;28;20053;-64
2022/10/05 14:02:57;;;;;;;47.53;17.70;;;;;;;;;;5005320;28;20052;-63
2022/10/05 14:05:25;;;;;;;37.25;17.73;;;;;;;;;;5005478;28;20509;-64
2022/10/05 14:07:54;;;;;;;50.63;19.25;;;;;;;;;;5005377;28;20037;-64
2022/10/05 14:10:30;;;;;;;49.55;21.92;;;;;;;;;;5005855;28;20041;-64
2022/10/05 14:12:57;;;;;;;48.50;21.80;;;;;;;;;;5025724;28;20072;-65
2022/10/05 14:15:31;;;;;;;43.13;21.73;;;;;;;;;;5024997;28;20041;-65
2022/10/05 14:17:58;;;;;;;53.05;21.33;;;;;;;;;;5025808;28;20094;-64
2022/10/05 14:20:38;;;;;;;48.70;21.77;;;;;;;;;;5024625;28;20032;-64
2022/10/05 14:23:13;;;;;;;43.80;21.98;;;;;;;;;;5025704;28;20056;-63
2022/10/05 14:25:49;;;;;;;36.42;20.45;;;;;;;;;;5021546;28;20231;-64
2022/10/05 14:28:24;;;;;;;46.22;21.83;;;;;;;;;;5026280;28;20037;-64
2022/10/05 14:30:57;;;;;;;39.38;20.20;;;;;;;;;;5025058;28;20637;-63
2022/10/05 14:33:25;;;;;;;39.95;19.75;;;;;;;;;;5025915;28;20053;-62
2022/10/05 14:35:54;;;;;;;38.40;20.65;;;;;;;;;;5024194;28;20099;-64
2022/10/05 14:38:21;;;;;;;44.75;20.50;;;;;;;;;;5025049;28;20087;-64
2022/10/05 14:41:06;;;;;;;38.83;20.08;;;;;;;;;;5025272;28;20041;-64
2022/10/05 14:43:32;;;;;;;41.40;19.98;;;;;;;;;;5025147;28;20036;-66
2022/10/05 14:46:01;;;;;;;47.30;20.63;;;;;;;;;;5026018;28;20047;-66
2022/10/05 14:48:37;;;;;;;44.17;21.05;;;;;;;;;;5024887;28;20038;-63
2022/10/05 14:51:10;;;;;;;44.58;20.58;;;;;;;;;;5024660;28;20665;-65
2022/10/05 14:53:38;;;;;;;47.25;21.92;;;;;;;;;;5025083;28;20240;-63
2022/10/05 14:56:08;;;;;;;37.05;19.70;;;;;;;;;;5025938;28;20053;-64
2022/10/05 14:59:02;;;;;;;37.35;21.98;;;;;;;;;;5025528;28;20042;-65
2022/10/05 15:01:30;;;;;;;48.50;20.52;;;;;;;;;;4986852;28;20047;-66
2022/10/05 15:03:57;;;;;;;40.47;21.05;;;;;;;;;;5025292;28;20045;-64
2022/10/05 15:06:32;;;;;;;38.00;20.55;;;;;;;;;;5024255;28;20047;-64
2022/10/05 15:09:08;;;;;;;36.88;20.08;;;;;;;;;;5025505;28;20041;-64
2022/10/05 15:11:47;;;;;;;38.70;20.13;;;;;;;;;;5024406;28;20662;-63
2022/10/05 15:14:43;;;;;;;34.03;19.42;;;;;;;;;;5025308;28;20377;-63
2022/10/05 15:17:18;;;;;;;34.15;19.45;;;;;;;;;;5007883;28;20041;-66
2022/10/05 15:19:54;;;;;;;34.42;19.38;;;;;;;;;;5023810;28;20064;-65
2022/10/05 15:22:25;;;;;;;33.03;18.17;;;;;;;;;;5024254;28;20072;-64
2022/10/05 15:24:51;;;;;;;35.45;18.20;;;;;;;;;;5024751;28;20045;-65
2022/10/05 15:27:22;;;;;;;30.23;17.13;;;;;;;;;;5025272;28;20042;-64